ADDS METAR Data INFO
IDs: Format: Raw Decoded Include TAF

Data at: 0713 UTC 19 Oct 2017

PAMC 190653Z AUTO 00000KT 10SM OVC070 M02/M07 A2943 RMK AO2 SLP972 T10171072 TSNO
PAMC 190553Z AUTO 00000KT 10SM OVC070 M02/M08 A2943 RMK AO2 SLP972 T10171078 10006 21017 51000 TSNO
PAMC 190453Z AUTO 33003KT 10SM OVC070 M02/M08 A2943 RMK AO2 SLP972 T10171078 TSNO
PAMC 190353Z AUTO 30005KT 10SM OVC075 M01/M08 A2943 RMK AO2 SLP973 T10111083 TSNO
PAMC 190253Z AUTO 01003KT 10SM FEW039 OVC075 M01/M08 A2943 RMK AO2 SLP972 T10111078 53005 TSNO
PAMC 190153Z AUTO 01006KT 10SM BKN039 OVC080 M01/M08 A2942 RMK AO2 SLP968 T10061078 TSNO
PAMC 190053Z AUTO 01007KT 10SM CLR 00/M08 A2941 RMK AO2 SLP966 T00001078 TSNO
PAMC 182353Z AUTO 36010KT 10SM CLR 01/M08 A2941 RMK AO2 SLP966 60000 T00061078 10006 21011 58000 TSNO
PAMC 182253Z AUTO 35009KT 10SM CLR 01/M08 A2941 RMK AO2 SLP966 T00061078 TSNO
PAMC 182153Z AUTO 33009KT 10SM CLR 00/M07 A2942 RMK AO2 SLP968 T00001072 TSNO
PAMC 182133Z AUTO 34010KT 10SM SCT026 M01/M07 A2942 RMK AO2 T10061067 TSNO
PAMC 182053Z AUTO 36007KT 10SM BKN027 OVC032 M01/M06 A2941 RMK AO2 SLP967 60000 T10061061 51008 TSNO
PAMC 182035Z AUTO 01009KT 10SM BKN029 BKN038 OVC080 M01/M06 A2941 RMK AO2 T10061056 TSNO
PAMC 181953Z AUTO 36006KT 10SM SCT024 BKN060 OVC080 M01/M04 A2941 RMK AO2 SNE38 SLP966 P0000 T10061039 TSNO
PAMC 181920Z AUTO 33009KT 8SM -SN BKN020 OVC050 M01/M04 A2940 RMK AO2 P0000 T10061044 TSNO
PAMC 181853Z AUTO 31005KT 6SM -SN FEW027 BKN042 OVC049 M01/M04 A2940 RMK AO2 SNB12 SLP961 P0000 T10111044 TSNO
PAMC 181753Z AUTO 28004KT 10SM FEW029 OVC050 M01/M04 A2939 RMK AO2 SLP959 60000 T10111044 11011 21033 56006 TSNO
PAMC 181653Z AUTO 00000KT 10SM FEW018 BKN050 OVC080 M03/M06 A2939 RMK AO2 SLP960 T10331056 TSNO
PAMC 181639Z AUTO 17003KT 10SM SCT018 BKN043 OVC080 M03/M06 A2939 RMK AO2 T10331056 TSNO
PAMC 181632Z AUTO 18003KT 10SM SCT018 BKN027 OVC080 M03/M05 A2939 RMK AO2 T10281050 TSNO
PAMC 181553Z AUTO 00000KT 10SM FEW020 BKN033 OVC050 M03/M05 A2940 RMK AO2 SNB24E37 SLP962 P0000 T10281050 TSNO
PAMC 181453Z AUTO 00000KT 10SM BKN055 OVC080 M03/M05 A2941 RMK AO2 SLP966 T10281050 58011 TSNO $
PAMC 181353Z AUTO 23004KT 10SM FEW029 M03/M06 A2942 RMK AO2 SLP968 T10281056 TSNO $
PAMC 181253Z AUTO 00000KT 10SM FEW023 BKN035 OVC060 M02/M06 A2943 RMK AO2 SLP973 T10171056 TSNO $
PAMC 181153Z AUTO 21003KT 9SM SCT048 OVC065 M02/M06 A2944 RMK AO2 SNB38E50 SLP976 P0000 60000 T10221061 11011 21033 58005 TSNO $
PAMC 180953Z AUTO 23003KT 10SM OVC048 M03/M07 A2946 RMK AO2 SLP982 T10281067 TSNO $
PAMC 180853Z AUTO 00000KT 10SM OVC048 M03/M07 A2946 RMK AO2 SLP982 T10281067 400171033 51002 TSNO $
PAMC 180753Z AUTO 34003KT 10SM OVC047 M03/M07 A2946 RMK AO2 SLP982 T10281072 TSNO $
PAMC 180653Z AUTO 27003KT 10SM CLR M03/M07 A2946 RMK AO2 SLP981 T10281072 TSNO $
PAMC 180553Z AUTO 00000KT 10SM OVC037 M01/M06 A2945 RMK AO2 SLP979 T10111061 10017 21011 53005 TSNO $
PAMC 180453Z AUTO 00000KT 10SM OVC039 M01/M07 A2945 RMK AO2 SLP977 T10061067 TSNO $
PAMC 180253Z AUTO 03004KT 10SM SCT038 00/M07 A2944 RMK AO2 SLP974 T00001072 55001 TSNO $
PAMC 180153Z AUTO 03006KT 10SM SCT037 01/M08 A2943 RMK AO2 SLP973 T00111078 TSNO $
PAMC 180053Z AUTO 36003KT 10SM OVC037 01/M08 A2943 RMK AO2 SLP973 T00111078 TSNO $
PAMC 172353Z AUTO 35006KT 10SM OVC038 01/M07 A2944 RMK AO2 SLP975 T00111072 10017 20000 56007 TSNO $
PAMC 172253Z AUTO 02007KT 10SM OVC038 01/M07 A2945 RMK AO2 SLP978 T00111067 TSNO $
PAMC 172153Z AUTO 35007KT 10SM OVC037 01/M06 A2945 RMK AO2 SLP980 T00111061 TSNO $
PAMC 172053Z AUTO 01007KT 10SM OVC036 01/M07 A2946 RMK AO2 SLP982 T00061067 56005 TSNO $
PAMC 171953Z AUTO VRB05KT 10SM OVC033 01/M07 A2946 RMK AO2 SLP984 T00061072 TSNO $